Time;durP1;ratioP1;P1;durP2;ratioP2;P2;SDS_P1;SDS_P2;PMS_P1;PMS_P2;Temp;Humidity;BMP_temperature;BMP_pressure;BME280_temperature;BME280_humidity;BME280_pressure;Samples;Min_cycle;Max_cycle;Signal;HPM_P1;HPM_P2
2022/04/21 00:00:21;;;;;;;0.75;0.35;;;;;;;12.70;75.80;99839.47;4991821;28;20109;-78
2022/04/21 00:02:49;;;;;;;1.50;0.30;;;;;;;12.74;76.51;99836.03;4994086;28;20042;-77
2022/04/21 00:05:18;;;;;;;1.55;0.52;;;;;;;12.75;75.24;99831.72;4993637;28;20047;-77
2022/04/21 00:07:48;;;;;;;1.23;0.32;;;;;;;12.70;75.42;99829.09;4964066;28;20047;-78
2022/04/21 00:10:17;;;;;;;0.77;0.40;;;;;;;12.78;78.10;99829.13;4953775;29;20126;-75
2022/04/21 00:12:51;;;;;;;2.83;0.63;;;;;;;12.82;77.63;99822.22;4953021;29;20082;-79
2022/04/21 00:15:20;;;;;;;1.75;0.45;;;;;;;12.87;74.85;99815.31;4953351;28;20102;-81
2022/04/21 00:17:48;;;;;;;1.67;0.35;;;;;;;12.90;74.16;99825.75;4953291;29;20346;-76
2022/04/21 00:20:17;;;;;;;1.35;0.45;;;;;;;12.91;73.22;99830.06;4952524;29;20051;-78
2022/04/21 00:25:31;;;;;;;0.47;0.35;;;;;;;12.97;73.55;99825.78;4952830;29;20066;-77
2022/04/21 00:28:01;;;;;;;0.50;0.30;;;;;;;13.05;72.61;99827.53;4952511;29;20051;-78
2022/04/21 00:30:29;;;;;;;1.00;0.30;;;;;;;13.08;72.54;99836.22;4952932;29;20154;-77
2022/04/21 00:32:58;;;;;;;0.68;0.40;;;;;;;13.13;73.82;99846.63;4952010;29;20493;-75
2022/04/21 00:35:26;;;;;;;1.98;0.35;;;;;;;13.05;72.06;99833.59;4952382;29;20047;-80
2022/04/21 00:37:56;;;;;;;0.73;0.30;;;;;;;13.06;71.64;99840.53;4953377;29;20051;-74
2022/04/21 00:40:27;;;;;;;1.20;0.50;;;;;;;13.06;72.22;99843.13;4952698;29;20062;-77
2022/04/21 00:42:56;;;;;;;1.08;0.30;;;;;;;13.06;72.33;99834.47;4952116;29;20043;-77
2022/04/21 00:45:28;;;;;;;0.80;0.30;;;;;;;13.06;73.73;99840.53;4952707;28;20055;-78
2022/04/21 00:47:58;;;;;;;;;;;;;;;13.05;74.80;99843.97;4953207;29;20051;-78
2022/04/21 00:50:39;;;;;;;1.08;0.50;;;;;;;12.97;73.10;99837.91;4952550;29;19934;-82
2022/04/21 00:53:09;;;;;;;0.28;0.22;;;;;;;12.90;74.64;99838.72;4952011;29;20074;-81
2022/04/21 00:55:40;;;;;;;0.70;0.38;;;;;;;12.84;73.77;99843.88;4952493;28;20126;-78
2022/04/21 00:58:10;;;;;;;0.70;0.40;;;;;;;12.75;74.72;99840.34;4953537;29;20552;-80
2022/04/21 01:00:40;;;;;;;1.85;0.20;;;;;;;12.76;77.58;99834.31;4953439;29;20051;-77
2022/04/21 01:03:07;;;;;;;0.77;0.38;;;;;;;12.71;76.22;99840.31;4951898;29;20141;-79
2022/04/21 01:05:49;;;;;;;0.45;0.20;;;;;;;12.59;76.15;99835.94;4952759;29;20059;-74
2022/04/21 01:08:17;;;;;;;1.20;0.20;;;;;;;12.51;76.92;99835.03;4968414;28;20055;-78
2022/04/21 01:10:47;;;;;;;1.40;0.32;;;;;;;12.36;76.27;99844.41;4980873;28;20140;-79
2022/04/21 01:13:16;;;;;;;0.20;0.15;;;;;;;12.43;81.69;99852.25;4991410;28;20054;-79
2022/04/21 01:15:46;;;;;;;0.95;0.38;;;;;;;12.35;77.75;99845.28;4991516;28;20050;-78
2022/04/21 01:18:14;;;;;;;1.60;0.98;;;;;;;12.31;79.42;99843.53;4990695;28;20050;-79
2022/04/21 01:20:44;;;;;;;0.20;0.20;;;;;;;12.24;79.66;99843.47;4990217;28;20190;-77
2022/04/21 01:23:13;;;;;;;0.10;0.10;;;;;;;12.20;77.88;99845.16;4989631;28;20050;-76
2022/04/21 01:25:42;;;;;;;0.47;0.38;;;;;;;12.15;78.86;99852.91;4990558;28;20468;-79
2022/04/21 01:28:11;;;;;;;0.57;0.38;;;;;;;12.19;77.53;99840.84;4991129;28;20057;-79
2022/04/21 01:30:39;;;;;;;1.80;0.20;;;;;;;12.23;84.70;99834.84;4990388;28;20515;-75
2022/04/21 01:33:08;;;;;;;0.20;0.10;;;;;;;12.34;82.21;99838.34;4990048;28;20528;-74
2022/04/21 01:35:37;;;;;;;0.40;0.20;;;;;;;12.40;82.79;99839.28;4989590;28;20559;-74
2022/04/21 01:41:11;;;;;;;0.63;0.20;;;;;;;12.47;80.83;99846.25;4989356;28;20542;-73
2022/04/21 01:43:43;;;;;;;1.40;0.50;;;;;;;12.45;79.71;99840.16;4989138;28;20046;-77
2022/04/21 01:46:11;;;;;;;0.25;0.10;;;;;;;12.36;76.70;99846.16;4990671;28;20050;-75
2022/04/21 01:48:40;;;;;;;0.38;0.17;;;;;;;12.31;76.89;99838.34;4989978;28;20047;-75
2022/04/21 01:51:09;;;;;;;1.35;0.25;;;;;;;12.38;78.95;99836.66;4990112;28;20058;-72
2022/04/21 01:53:41;;;;;;;0.30;0.20;;;;;;;12.30;77.51;99835.72;4989695;28;20113;-74
2022/04/21 01:56:10;;;;;;;0.32;0.30;;;;;;;12.20;77.29;99821.81;4992421;28;20110;-76
2022/04/21 01:58:38;;;;;;;0.40;0.28;;;;;;;12.25;79.79;99817.53;4989531;28;20051;-75
2022/04/21 02:01:07;;;;;;;1.23;0.45;;;;;;;12.28;86.14;99821.91;4990129;28;20050;-75
2022/04/21 02:03:35;;;;;;;0.40;0.20;;;;;;;12.26;82.65;99824.47;4989439;28;20104;-76
2022/04/21 02:06:04;;;;;;;0.52;0.25;;;;;;;12.18;79.76;99805.38;4989266;28;20146;-78
2022/04/21 02:08:32;;;;;;;0.90;0.20;;;;;;;12.04;80.09;99801.81;4953135;28;20059;-70
2022/04/21 02:11:02;;;;;;;1.02;0.40;;;;;;;12.01;81.21;99802.66;4950652;29;20444;-73
2022/04/21 02:13:31;;;;;;;0.30;0.20;;;;;;;12.01;83.00;99791.44;4950268;29;20054;-74
2022/04/21 02:15:59;;;;;;;0.45;0.30;;;;;;;11.97;81.84;99782.75;4950906;29;20142;-74
2022/04/21 02:18:28;;;;;;;0.77;0.40;;;;;;;11.97;82.44;99781.88;4950474;29;20465;-72
2022/04/21 02:20:56;;;;;;;1.30;0.45;;;;;;;11.92;79.84;99769.75;4950609;29;20442;-76
2022/04/21 02:23:25;;;;;;;2.08;0.50;;;;;;;11.91;81.47;99780.09;4950050;29;20153;-76
2022/04/21 02:25:53;;;;;;;2.58;0.75;;;;;;;11.87;78.85;99781.81;4950508;28;20504;-75
2022/04/21 02:28:25;;;;;;;1.88;0.47;;;;;;;11.80;78.95;99776.53;4950555;29;20086;-76
2022/04/21 02:30:53;;;;;;;3.08;0.38;;;;;;;11.74;78.45;99785.97;4950401;29;20058;-71
2022/04/21 02:33:22;;;;;;;1.23;0.43;;;;;;;11.65;79.98;99782.44;4949632;29;20090;-74
2022/04/21 02:35:50;;;;;;;1.67;0.43;;;;;;;11.57;81.61;99764.22;4950233;28;20051;-78
2022/04/21 02:38:19;;;;;;;0.80;0.50;;;;;;;11.55;79.19;99784.06;4950827;29;20087;-73
2022/04/21 02:40:47;;;;;;;0.75;0.47;;;;;;;11.52;82.81;99782.31;4950694;28;20047;-74
2022/04/21 02:43:16;;;;;;;3.00;0.52;;;;;;;11.41;81.09;99781.34;4949504;29;20514;-75
2022/04/21 02:45:46;;;;;;;2.85;0.65;;;;;;;11.29;82.83;99782.06;4950107;28;20051;-77
2022/04/21 02:48:16;;;;;;;0.90;0.80;;;;;;;11.23;81.64;99786.31;4950676;28;20118;-76
2022/04/21 02:50:45;;;;;;;1.58;0.40;;;;;;;11.14;80.25;99787.06;4952681;28;20094;-75
2022/04/21 02:53:14;;;;;;;3.05;0.52;;;;;;;11.08;81.92;99779.22;4950722;29;20053;-74
2022/04/21 02:58:28;;;;;;;0.47;0.35;;;;;;;11.00;82.13;99776.56;4951100;29;20507;-74
2022/04/21 03:00:58;;;;;;;2.15;0.52;;;;;;;10.95;83.11;99779.94;4950146;29;20090;-73
2022/04/21 03:03:27;;;;;;;0.82;0.40;;;;;;;10.90;82.14;99772.09;4949276;29;20102;-74
2022/04/21 03:05:55;;;;;;;4.15;0.43;;;;;;;10.88;83.30;99768.63;4949469;28;20098;-75
2022/04/21 03:08:24;;;;;;;4.03;1.05;;;;;;;10.88;84.99;99763.44;4951336;28;20059;-72
2022/04/21 03:10:53;;;;;;;1.15;0.50;;;;;;;10.89;86.17;99757.44;4950556;28;20055;-74
2022/04/21 03:13:21;;;;;;;3.08;0.73;;;;;;;10.90;85.46;99749.69;4948815;29;20079;-73
2022/04/21 03:15:50;;;;;;;1.85;0.40;;;;;;;10.90;85.37;99741.03;4949966;29;20540;-72
2022/04/21 03:18:20;;;;;;;1.30;0.50;;;;;;;10.90;84.49;99741.03;4950209;29;20093;-74
2022/04/21 03:26:19;;;;;;;0.57;0.43;;;;;;;10.85;83.23;99745.31;4949689;29;20109;-75
2022/04/21 03:28:48;;;;;;;2.75;0.60;;;;;;;10.81;82.29;99743.53;4949883;29;20050;-74
2022/04/21 03:31:16;;;;;;;1.48;0.43;;;;;;;10.83;81.96;99753.03;4950405;29;20509;-76
2022/04/21 03:33:46;;;;;;;0.90;0.40;;;;;;;10.80;82.62;99752.16;4950022;28;20051;-74
2022/04/21 03:36:15;;;;;;;1.63;0.90;;;;;;;10.80;82.05;99744.38;4949862;29;20059;-75
2022/04/21 03:38:43;;;;;;;1.52;1.23;;;;;;;10.78;82.66;99748.66;4949915;28;20137;-74
2022/04/21 03:41:11;;;;;;;0.85;0.40;;;;;;;10.73;82.39;99740.00;4949854;29;20079;-75
2022/04/21 03:43:40;;;;;;;1.38;0.60;;;;;;;10.73;82.91;99729.66;4949805;28;20051;-74
2022/04/21 03:46:09;;;;;;;1.88;0.47;;;;;;;10.71;83.43;99731.34;4950337;28;20138;-74
2022/04/21 03:48:38;;;;;;;2.00;0.80;;;;;;;10.67;83.21;99736.50;4953115;29;20066;-74
2022/04/21 03:51:09;;;;;;;2.15;0.75;;;;;;;10.64;84.47;99741.59;4950308;28;20087;-75
2022/04/21 03:53:38;;;;;;;1.02;0.50;;;;;;;10.64;84.70;99741.59;4950497;29;20139;-75
2022/04/21 03:56:07;;;;;;;1.13;0.50;;;;;;;10.60;84.12;99741.53;4950094;29;20086;-74
2022/04/21 03:58:35;;;;;;;1.20;0.40;;;;;;;10.56;84.41;99735.47;4950004;29;20114;-75
2022/04/21 04:01:04;;;;;;;1.40;0.60;;;;;;;10.56;85.44;99727.72;4949886;29;20130;-74
2022/04/21 04:03:32;;;;;;;2.72;0.60;;;;;;;10.55;85.38;99731.13;4949707;28;20106;-74
2022/04/21 04:06:00;;;;;;;0.63;0.55;;;;;;;10.56;84.35;99732.88;4949892;29;20078;-75
2022/04/21 04:11:16;;;;;;;1.83;0.60;;;;;;;10.57;84.35;99742.38;4950017;29;20053;-74
2022/04/21 04:13:44;;;;;;;3.70;0.88;;;;;;;10.57;83.88;99738.94;4949877;29;20055;-74
2022/04/21 04:16:13;;;;;;;1.05;0.70;;;;;;;10.56;83.40;99732.00;4949307;29;20502;-73
2022/04/21 04:18:41;;;;;;;3.13;0.80;;;;;;;10.55;84.17;99725.97;4949651;29;20060;-73
2022/04/21 04:21:12;;;;;;;2.70;0.90;;;;;;;10.52;83.67;99728.53;4949351;29;20843;-75
2022/04/21 04:23:42;;;;;;;1.63;0.93;;;;;;;10.51;83.90;99719.00;4949440;29;20059;-74
2022/04/21 04:26:10;;;;;;;2.83;1.08;;;;;;;10.50;83.84;99722.44;4949534;29;20051;-73
2022/04/21 04:28:39;;;;;;;3.15;1.08;;;;;;;10.51;83.46;99719.00;4949326;29;20090;-74
2022/04/21 04:31:08;;;;;;;1.67;0.93;;;;;;;10.50;82.50;99717.28;4949641;28;20517;-74
2022/04/21 04:33:36;;;;;;;2.55;1.10;;;;;;;10.47;83.08;99707.78;4953025;28;20054;-73
2022/04/21 04:36:06;;;;;;;2.30;0.90;;;;;;;10.46;86.04;99700.84;4952893;28;20078;-75
2022/04/21 04:38:34;;;;;;;2.65;1.13;;;;;;;10.41;87.09;99692.16;4953196;29;20098;-74
2022/04/21 04:42:16;;;;;;;3.25;1.50;;;;;;;10.36;84.13;99687.78;4953234;28;20079;-73
2022/04/21 04:43:51;;;;;;;4.32;1.33;;;;;;;10.32;82.80;99691.19;4954024;29;20051;-75
2022/04/21 04:46:39;;;;;;;4.53;1.35;;;;;;;10.33;85.67;99678.28;4956090;28;20051;-74
2022/04/21 04:49:08;;;;;;;3.47;1.20;;;;;;;10.34;85.53;99671.38;4953201;29;20062;-73
2022/04/21 04:51:38;;;;;;;2.17;1.02;;;;;;;10.32;86.70;99675.66;4953129;29;20134;-73
2022/04/21 04:54:06;;;;;;;1.65;0.73;;;;;;;10.23;81.98;99668.63;4953111;29;20052;-73
2022/04/21 04:56:37;;;;;;;1.92;1.02;;;;;;;10.17;83.63;99656.50;4952849;29;20154;-73
2022/04/21 04:59:06;;;;;;;1.75;0.80;;;;;;;10.15;83.37;99660.78;4952925;29;20505;-73
2022/04/21 05:01:40;;;;;;;1.25;0.60;;;;;;;10.11;83.71;99642.63;4953244;28;20588;-73
2022/04/21 05:04:10;;;;;;;0.93;0.55;;;;;;;10.13;80.88;99639.19;4952402;29;20130;-72
2022/04/21 05:06:40;;;;;;;3.90;0.98;;;;;;;10.13;81.38;99639.19;4954488;28;20180;-73
2022/04/21 05:09:10;;;;;;;2.65;1.13;;;;;;;10.13;81.56;99641.78;4952295;29;20555;-73
2022/04/21 05:11:41;;;;;;;2.67;1.00;;;;;;;10.15;83.93;99647.84;4952397;29;20062;-74
2022/04/21 05:14:10;;;;;;;2.35;1.05;;;;;;;10.16;84.76;99646.97;4952240;29;20051;-74
2022/04/21 05:16:39;;;;;;;1.77;0.60;;;;;;;10.14;83.82;99635.75;4951881;28;20130;-74
2022/04/21 05:19:09;;;;;;;1.55;0.70;;;;;;;10.11;84.07;99635.72;4952454;28;20051;-73
2022/04/21 05:21:38;;;;;;;0.73;0.50;;;;;;;10.11;81.97;99646.06;4952069;29;20134;-73
2022/04/21 05:24:08;;;;;;;2.20;0.73;;;;;;;10.14;83.01;99643.50;4951949;29;20105;-73
2022/04/21 05:26:37;;;;;;;1.58;0.68;;;;;;;10.17;84.83;99643.56;4952221;29;20051;-73
2022/04/21 05:31:51;;;;;;;1.65;0.65;;;;;;;10.22;84.06;99639.31;4951922;29;20054;-75
2022/04/21 05:34:20;;;;;;;0.55;0.50;;;;;;;10.24;84.12;99629.00;4951881;29;20046;-74
2022/04/21 05:36:49;;;;;;;1.92;0.60;;;;;;;10.31;83.13;99629.94;4952040;28;20114;-74
2022/04/21 05:39:18;;;;;;;1.25;0.77;;;;;;;10.32;82.96;99623.97;4951596;29;20047;-73
2022/04/21 05:41:47;;;;;;;1.88;0.60;;;;;;;10.35;84.05;99621.41;4954313;28;20062;-73
2022/04/21 05:44:18;;;;;;;0.93;0.50;;;;;;;10.36;85.14;99610.22;4953336;28;20051;-74
2022/04/21 05:46:47;;;;;;;0.93;0.65;;;;;;;10.36;83.60;99603.31;4952429;29;20232;-74
2022/04/21 05:49:16;;;;;;;0.75;0.60;;;;;;;10.37;83.97;99602.47;4952350;29;20059;-74
2022/04/21 05:51:46;;;;;;;1.65;0.57;;;;;;;10.37;85.04;99611.94;4952168;29;20605;-73
2022/04/21 05:54:15;;;;;;;1.23;0.68;;;;;;;10.37;86.07;99607.63;4951596;28;20043;-73
2022/04/21 05:56:44;;;;;;;1.15;0.73;;;;;;;10.34;85.25;99601.56;4952201;29;20560;-74
2022/04/21 05:59:13;;;;;;;2.13;0.70;;;;;;;10.33;86.31;99589.47;4951972;29;20572;-74
2022/04/21 06:01:43;;;;;;;1.15;0.68;;;;;;;10.33;86.21;99590.38;4951878;29;20085;-74
2022/04/21 06:04:11;;;;;;;1.25;0.70;;;;;;;10.34;87.03;99588.66;4951654;28;20143;-74
2022/04/21 06:06:40;;;;;;;3.55;0.80;;;;;;;10.34;86.68;99591.22;4951847;28;20594;-73
2022/04/21 06:09:09;;;;;;;0.90;0.52;;;;;;;10.31;86.14;99592.06;4970190;28;20051;-72
2022/04/21 06:11:37;;;;;;;1.23;0.80;;;;;;;10.27;87.89;99598.88;4970783;28;20130;-73
2022/04/21 06:14:06;;;;;;;1.80;0.85;;;;;;;10.18;90.23;99608.25;4970580;28;20055;-74
2022/04/21 06:16:34;;;;;;;1.40;0.70;;;;;;;10.14;100.00;99609.91;4970293;28;20050;-73
2022/04/21 06:19:04;;;;;;;2.08;0.70;;;;;;;10.10;100.00;99600.41;4970399;28;20543;-73
2022/04/21 06:21:33;;;;;;;2.40;0.80;;;;;;;10.07;100.00;99608.09;4970749;28;20120;-73
2022/04/21 06:24:01;;;;;;;0.80;0.55;;;;;;;10.04;100.00;99614.09;4969776;28;20488;-73
2022/04/21 06:26:30;;;;;;;1.17;0.70;;;;;;;10.04;100.00;99608.91;4970309;28;20145;-73
2022/04/21 06:29:02;;;;;;;1.30;0.90;;;;;;;10.06;100.00;99622.75;4969802;28;20051;-73
2022/04/21 06:31:30;;;;;;;1.27;0.70;;;;;;;10.08;100.00;99625.34;4969923;28;20111;-74
2022/04/21 06:33:59;;;;;;;1.20;0.80;;;;;;;10.09;100.00;99621.03;4970029;28;20054;-74
2022/04/21 06:36:29;;;;;;;1.02;0.60;;;;;;;10.08;100.00;99625.34;4969926;28;20046;-74
2022/04/21 06:38:57;;;;;;;1.17;0.73;;;;;;;10.09;100.00;99631.38;4971812;28;20081;-74
2022/04/21 06:41:26;;;;;;;1.88;0.80;;;;;;;10.06;100.00;99642.56;4971732;28;20094;-75
2022/04/21 06:49:24;;;;;;;2.22;1.42;;;;;;;10.02;100.00;99670.06;4970306;28;20082;-76
2022/04/21 06:51:54;;;;;;;2.03;1.10;;;;;;;9.94;100.00;99665.63;4970614;28;20130;-76
2022/04/21 06:54:23;;;;;;;2.83;1.25;;;;;;;9.86;100.00;99655.19;4970170;28;20050;-76
2022/04/21 06:56:53;;;;;;;3.28;1.30;;;;;;;9.91;100.00;99660.41;4972692;28;20105;-79
2022/04/21 06:59:21;;;;;;;2.08;1.15;;;;;;;9.91;100.00;99647.50;4972041;28;20054;-79
2022/04/21 07:01:50;;;;;;;1.73;0.85;;;;;;;9.93;100.00;99643.22;4970433;28;20050;-79
2022/04/21 07:04:20;;;;;;;3.78;1.27;;;;;;;9.93;100.00;99646.66;4969505;28;20062;-78
2022/04/21 07:06:48;;;;;;;2.10;1.08;;;;;;;9.93;100.00;99640.63;4971133;28;20057;-78
2022/04/21 07:09:18;;;;;;;3.65;1.52;;;;;;;9.93;100.00;99641.50;4950382;29;20051;-76
2022/04/21 07:11:47;;;;;;;6.60;1.73;;;;;;;9.92;100.00;99636.31;4950377;29;20051;-74
2022/04/21 07:14:15;;;;;;;1.40;1.10;;;;;;;9.93;100.00;99635.47;4950263;29;20078;-73
2022/04/21 07:16:43;;;;;;;2.58;1.40;;;;;;;9.79;100.00;99633.56;4949803;29;20576;-73
2022/04/21 07:19:12;;;;;;;3.60;1.55;;;;;;;9.83;100.00;99653.44;4950089;29;20047;-74
2022/04/21 07:21:40;;;;;;;4.35;1.83;;;;;;;9.80;100.00;99665.41;4950124;29;20328;-71
2022/04/21 07:24:08;;;;;;;2.15;1.23;;;;;;;9.76;100.00;99668.81;4948799;28;20139;-70
2022/04/21 07:26:38;;;;;;;3.63;1.63;;;;;;;9.73;100.00;99677.38;4950144;29;20131;-70
2022/04/21 07:29:07;;;;;;;3.38;1.50;;;;;;;9.72;100.00;99687.69;4949702;29;20058;-70
2022/04/21 07:31:37;;;;;;;3.03;1.38;;;;;;;9.70;100.00;99692.81;4949806;28;20557;-70
2022/04/21 07:34:05;;;;;;;1.65;1.13;;;;;;;9.65;100.00;99702.22;4950224;29;20121;-70
2022/04/21 07:36:34;;;;;;;3.00;1.38;;;;;;;9.59;100.00;99705.56;4951708;29;20047;-70
2022/04/21 07:39:03;;;;;;;2.33;0.90;;;;;;;9.51;100.00;99704.56;4951821;29;20058;-70
2022/04/21 07:41:31;;;;;;;1.63;1.10;;;;;;;9.47;100.00;99714.81;4950650;29;20050;-71
2022/04/21 07:44:02;;;;;;;2.13;1.35;;;;;;;9.41;100.00;99719.06;4950267;29;20055;-71
2022/04/21 07:46:30;;;;;;;1.83;1.25;;;;;;;9.34;100.00;99726.63;4950565;29;20113;-71
2022/04/21 07:51:43;;;;;;;1.98;1.20;;;;;;;9.21;100.00;99679.09;4919910;29;20069;-72
2022/04/21 07:54:10;;;;;;;2.53;1.10;;;;;;;9.21;100.00;99672.22;4949975;28;20189;-72
2022/04/21 07:56:38;;;;;;;1.60;1.02;;;;;;;9.21;100.00;99669.66;4950145;28;20090;-73
2022/04/21 07:59:08;;;;;;;3.03;1.50;;;;;;;9.17;100.00;99685.06;4949917;29;20082;-73
2022/04/21 08:01:37;;;;;;;3.35;1.27;;;;;;;9.14;100.00;99677.22;4950308;29;20090;-74
2022/04/21 08:04:05;;;;;;;2.92;1.05;;;;;;;9.10;100.00;99667.72;4949914;28;20047;-72
2022/04/21 08:06:34;;;;;;;3.53;1.30;;;;;;;9.04;100.00;99683.09;4952062;28;20051;-73
2022/04/21 08:09:04;;;;;;;3.70;1.52;;;;;;;9.04;100.00;99695.97;4955526;28;20087;-73
2022/04/21 08:11:32;;;;;;;3.38;1.30;;;;;;;9.02;100.00;99683.94;4953026;29;20588;-73
2022/04/21 08:14:00;;;;;;;2.08;1.20;;;;;;;9.00;100.00;99690.78;4953545;28;20482;-74
2022/04/21 08:16:30;;;;;;;1.65;1.23;;;;;;;9.02;100.00;99694.25;4953560;29;20087;-72
2022/04/21 08:19:00;;;;;;;1.17;0.90;;;;;;;9.02;100.00;99693.38;4953251;29;20047;-73
2022/04/21 08:21:28;;;;;;;1.33;1.08;;;;;;;9.04;100.00;99680.50;4953454;28;20047;-73
2022/04/21 08:32:33;;;;;;;1.58;1.00;;;;;;;9.07;100.00;99690.88;4953115;28;20569;-73
2022/04/21 08:32:41;;;;;;;1.65;0.60;;;;;;;8.97;100.00;99706.19;4953405;29;20058;-73
2022/04/21 08:35:09;;;;;;;;;;;;;;;8.96;100.00;99708.75;4956643;29;20489;-72
2022/04/21 08:37:38;;;;;;;1.25;0.60;;;;;;;8.94;100.00;99711.28;4953582;29;20371;-72
2022/04/21 08:40:08;;;;;;;1.70;0.50;;;;;;;8.87;100.00;99708.56;4952801;29;20047;-73
2022/04/21 08:42:40;;;;;;;0.50;0.30;;;;;;;8.84;100.00;99709.34;4952762;29;20511;-73
2022/04/21 08:45:10;;;;;;;0.40;0.25;;;;;;;8.83;100.00;99717.94;4953463;29;20051;-73
2022/04/21 08:47:43;;;;;;;0.70;0.40;;;;;;;8.78;100.00;99714.41;4952423;29;20063;-72
2022/04/21 08:50:14;;;;;;;0.88;0.40;;;;;;;8.76;100.00;99726.41;4952875;29;20055;-72
2022/04/21 08:52:43;;;;;;;2.72;0.50;;;;;;;8.74;100.00;99721.22;4953020;29;20047;-72
2022/04/21 08:55:12;;;;;;;0.98;0.50;;;;;;;8.71;100.00;99722.88;4953047;29;20563;-71
2022/04/21 08:57:40;;;;;;;1.25;0.30;;;;;;;8.68;100.00;99721.09;4952581;29;20571;-72
2022/04/21 09:00:10;;;;;;;1.92;0.75;;;;;;;8.66;100.00;99724.47;4953011;28;20620;-73
2022/04/21 09:02:42;;;;;;;0.75;0.50;;;;;;;8.67;100.00;99728.81;4952346;29;20051;-73
2022/04/21 09:05:11;;;;;;;1.65;0.50;;;;;;;8.67;100.00;99733.97;4952897;28;20051;-74
2022/04/21 09:07:46;;;;;;;1.27;0.52;;;;;;;8.64;100.00;99741.63;4953794;28;20165;-76
2022/04/21 09:10:15;;;;;;;0.52;0.30;;;;;;;8.63;100.00;99734.72;4952970;29;20110;-73
2022/04/21 09:12:47;;;;;;;0.52;0.40;;;;;;;8.59;100.00;99739.81;4952417;28;20134;-73
2022/04/21 09:15:16;;;;;;;3.40;0.40;;;;;;;8.59;100.00;99742.41;4952648;28;20083;-73
2022/04/21 09:17:48;;;;;;;1.60;0.50;;;;;;;8.57;100.00;99738.06;4951757;28;20082;-72
2022/04/21 09:20:19;;;;;;;2.05;0.65;;;;;;;8.57;100.00;99738.94;4945281;29;20075;-73
2022/04/21 09:22:55;;;;;;;0.63;0.28;;;;;;;8.54;100.00;99736.28;4952455;28;20047;-73
2022/04/21 09:25:24;;;;;;;1.30;0.63;;;;;;;8.53;100.00;99744.84;4952763;28;20055;-73
2022/04/21 09:27:54;;;;;;;0.80;0.30;;;;;;;8.53;100.00;99739.69;4952121;29;20051;-72
2022/04/21 09:30:22;;;;;;;0.80;0.30;;;;;;;8.51;100.00;99736.19;4952437;29;20051;-73
2022/04/21 09:32:56;;;;;;;0.38;0.30;;;;;;;8.49;100.00;99737.88;4954394;29;20124;-74
2022/04/21 09:35:26;;;;;;;1.15;0.50;;;;;;;8.49;100.00;99743.03;4952673;29;20135;-76
2022/04/21 09:37:56;;;;;;;0.43;0.30;;;;;;;8.44;100.00;99734.34;4952196;29;20047;-73
2022/04/21 09:40:26;;;;;;;1.50;0.38;;;;;;;8.44;100.00;99736.91;4952805;29;20047;-73
2022/04/21 09:42:57;;;;;;;0.75;0.30;;;;;;;8.48;100.00;99743.88;4951893;29;20141;-72
2022/04/21 09:48:22;;;;;;;0.80;0.30;;;;;;;8.51;100.00;99743.06;4951668;29;20066;-73
2022/04/21 09:50:55;;;;;;;0.30;0.30;;;;;;;8.54;100.00;99733.72;4952091;29;20437;-73
2022/04/21 09:53:25;;;;;;;0.60;0.30;;;;;;;8.56;100.00;99734.59;4951779;29;20055;-72
2022/04/21 09:55:54;;;;;;;0.60;0.30;;;;;;;8.56;100.00;99741.47;4951343;29;20130;-72
2022/04/21 09:58:22;;;;;;;0.38;0.20;;;;;;;8.52;100.00;99743.13;4951181;28;20114;-72
2022/04/21 10:00:51;;;;;;;0.28;0.20;;;;;;;8.51;100.00;99751.66;4951820;29;20545;-72
2022/04/21 10:03:22;;;;;;;1.05;0.30;;;;;;;8.50;100.00;99751.66;4951758;29;20051;-72
2022/04/21 10:05:51;;;;;;;0.50;0.28;;;;;;;8.42;100.00;99759.22;4951319;29;20094;-73
2022/04/21 10:08:20;;;;;;;1.30;0.47;;;;;;;8.42;100.00;99756.63;4953689;28;20051;-75
2022/04/21 10:10:51;;;;;;;0.30;0.30;;;;;;;8.36;100.00;99766.75;4951311;29;20118;-72
2022/04/21 10:13:20;;;;;;;0.50;0.20;;;;;;;8.29;100.00;99770.94;4951206;29;20109;-73
2022/04/21 10:15:49;;;;;;;0.52;0.20;;;;;;;8.24;100.00;99763.91;4951353;29;20074;-76
2022/04/21 10:18:18;;;;;;;1.02;0.30;;;;;;;8.25;100.00;99768.25;4951449;29;20106;-72
2022/04/21 10:20:55;;;;;;;1.67;0.30;;;;;;;8.25;100.00;99763.09;4951282;28;20051;-71
2022/04/21 10:23:27;;;;;;;0.32;0.32;;;;;;;8.30;100.00;99771.78;4950887;29;20055;-71
2022/04/21 10:26:01;;;;;;;0.50;0.22;;;;;;;8.26;100.00;99785.44;4951586;28;20051;-72
2022/04/21 10:28:40;;;;;;;0.30;0.20;;;;;;;8.25;100.00;99779.44;4954807;28;20593;-74
2022/04/21 10:31:34;;;;;;;0.75;0.30;;;;;;;8.28;100.00;99781.19;4973697;28;20586;-76
2022/04/21 10:34:04;;;;;;;0.22;0.20;;;;;;;8.29;100.00;99780.34;4970781;28;20054;-74
2022/04/21 10:36:47;;;;;;;0.32;0.22;;;;;;;8.33;100.00;99785.59;4970844;28;20191;-75
2022/04/21 10:39:30;;;;;;;0.20;0.13;;;;;;;8.31;100.00;99789.00;4970758;28;20086;-75
2022/04/21 10:42:07;;;;;;;;;;;;;;;8.30;100.00;99788.13;4970011;28;20054;-73
2022/04/21 10:44:44;;;;;;;0.75;0.20;;;;;;;8.34;100.00;99799.38;4970488;28;20372;-74
2022/04/21 10:47:36;;;;;;;1.35;0.22;;;;;;;8.35;100.00;99796.81;4970079;28;20161;-74
2022/04/21 10:50:17;;;;;;;0.30;0.20;;;;;;;8.31;100.00;99809.59;4967234;28;20153;-75
2022/04/21 10:58:53;;;;;;;0.13;0.13;;;;;;;8.34;100.00;99830.31;4970111;28;20054;-73
2022/04/21 11:01:37;;;;;;;1.10;0.30;;;;;;;8.38;100.00;99829.53;4970203;28;20051;-75
2022/04/21 11:04:13;;;;;;;1.40;0.20;;;;;;;8.36;100.00;99834.66;4950575;28;20051;-73
2022/04/21 11:06:44;;;;;;;0.68;0.40;;;;;;;8.39;100.00;99834.72;4950274;28;20485;-73
2022/04/21 11:09:53;;;;;;;0.40;0.20;;;;;;;8.39;100.00;99839.03;4951788;28;20063;-71
2022/04/21 11:12:49;;;;;;;1.35;0.40;;;;;;;8.35;100.00;99843.22;4909904;29;20044;-73
2022/04/21 11:15:36;;;;;;;0.95;0.43;;;;;;;8.40;100.00;99851.09;4950428;29;20062;-73
2022/04/21 11:18:09;;;;;;;0.28;0.17;;;;;;;8.42;100.00;99848.56;4950585;28;20085;-72
2022/04/21 11:20:39;;;;;;;0.30;0.20;;;;;;;8.37;100.00;99859.59;4950581;29;20051;-73
2022/04/21 11:23:10;;;;;;;0.38;0.30;;;;;;;8.35;100.00;99870.72;4949939;29;20051;-72
2022/04/21 11:25:38;;;;;;;0.88;0.43;;;;;;;8.33;100.00;99868.09;4950516;29;20063;-71
2022/04/21 11:28:10;;;;;;;0.80;0.40;;;;;;;8.33;100.00;99874.94;4950767;29;20079;-73
2022/04/21 11:30:39;;;;;;;0.63;0.20;;;;;;;8.32;100.00;99878.38;4953764;29;20577;-71
2022/04/21 11:33:11;;;;;;;0.40;0.30;;;;;;;8.31;100.00;99886.94;4950296;29;20913;-72
2022/04/21 11:35:40;;;;;;;0.75;0.30;;;;;;;8.27;100.00;99890.25;4951086;29;20489;-74
2022/04/21 11:38:08;;;;;;;0.10;0.10;;;;;;;8.26;100.00;99893.69;4950153;29;20103;-74
2022/04/21 11:40:38;;;;;;;0.40;0.20;;;;;;;8.28;100.00;99907.47;4951498;28;20673;-73
2022/04/21 11:43:16;;;;;;;0.43;0.10;;;;;;;8.30;100.00;99906.69;4953896;29;20047;-74
2022/04/21 11:46:06;;;;;;;1.10;0.22;;;;;;;8.30;100.00;99910.97;4954182;29;20047;-70
2022/04/21 11:48:37;;;;;;;1.80;0.45;;;;;;;8.29;100.00;99912.69;4953709;29;20057;-72
2022/04/21 11:51:05;;;;;;;0.32;0.30;;;;;;;8.30;100.00;99921.28;4954228;29;20118;-71
2022/04/21 11:53:36;;;;;;;0.10;0.10;;;;;;;8.27;100.00;99931.50;4953902;29;20059;-73
2022/04/21 11:56:05;;;;;;;0.20;0.10;;;;;;;8.25;100.00;99939.22;4953940;29;20047;-73
2022/04/21 11:58:37;;;;;;;0.82;0.43;;;;;;;8.27;100.00;99932.38;4953548;29;20055;-72
2022/04/21 12:06:43;;;;;;;0.45;0.20;;;;;;;8.27;100.00;99941.81;4953900;29;20113;-71
2022/04/21 12:09:16;;;;;;;0.40;0.15;;;;;;;8.26;100.00;99950.38;4955607;28;20457;-73
2022/04/21 12:11:48;;;;;;;0.70;0.30;;;;;;;8.24;100.00;99949.47;4953618;28;20067;-72
2022/04/21 12:14:20;;;;;;;0.40;0.20;;;;;;;8.25;100.00;99956.38;4934966;29;20063;-72
2022/04/21 12:16:52;;;;;;;0.20;0.20;;;;;;;8.22;100.00;99948.56;4944022;29;20138;-73
2022/04/21 12:19:28;;;;;;;0.47;0.28;;;;;;;8.12;100.00;99942.28;4953819;29;20055;-70
2022/04/21 12:21:59;;;;;;;0.70;0.30;;;;;;;8.18;100.00;99952.78;4953140;29;20044;-73
2022/04/21 12:24:34;;;;;;;0.50;0.30;;;;;;;8.16;100.00;99963.03;4953484;29;20125;-72
2022/04/21 12:27:05;;;;;;;0.20;0.20;;;;;;;8.17;100.00;99962.19;4955746;29;20106;-71
2022/04/21 12:29:51;;;;;;;1.17;0.55;;;;;;;8.10;100.00;99956.84;4955126;29;20051;-71
2022/04/21 12:32:21;;;;;;;0.95;0.38;;;;;;;8.21;100.00;99967.44;4953540;29;20059;-71
2022/04/21 12:34:51;;;;;;;0.20;0.20;;;;;;;8.23;100.00;99978.66;4953025;29;20082;-73
2022/04/21 12:37:27;;;;;;;1.48;0.40;;;;;;;8.24;100.00;99977.81;4953277;29;20055;-73